sensor_id;sensor_type;location;lat;lon;timestamp;P1;durP1;ratioP1;P2;durP2;ratioP2
6306;SDS011;3186;54.062;9.962;2022-11-20T00:01:22;3.93;;;2.67;;
6306;SDS011;3186;54.062;9.962;2022-11-20T00:03:50;3.87;;;2.47;;
6306;SDS011;3186;54.062;9.962;2022-11-20T00:06:18;3.50;;;2.73;;
6306;SDS011;3186;54.062;9.962;2022-11-20T00:08:45;5.10;;;2.87;;
6306;SDS011;3186;54.062;9.962;2022-11-20T00:11:13;4.03;;;2.50;;
6306;SDS011;3186;54.062;9.962;2022-11-20T00:13:40;4.03;;;2.67;;
6306;SDS011;3186;54.062;9.962;2022-11-20T00:16:06;6.97;;;3.10;;
6306;SDS011;3186;54.062;9.962;2022-11-20T00:18:34;4.40;;;2.87;;
6306;SDS011;3186;54.062;9.962;2022-11-20T00:21:04;3.83;;;2.53;;
6306;SDS011;3186;54.062;9.962;2022-11-20T00:23:31;4.30;;;3.10;;
6306;SDS011;3186;54.062;9.962;2022-11-20T00:26:00;3.60;;;2.20;;
6306;SDS011;3186;54.062;9.962;2022-11-20T00:28:34;3.87;;;2.73;;
6306;SDS011;3186;54.062;9.962;2022-11-20T00:31:03;3.53;;;2.60;;
6306;SDS011;3186;54.062;9.962;2022-11-20T00:33:34;5.20;;;2.73;;
6306;SDS011;3186;54.062;9.962;2022-11-20T00:36:04;4.03;;;2.53;;
6306;SDS011;3186;54.062;9.962;2022-11-20T00:38:31;4.37;;;2.37;;
6306;SDS011;3186;54.062;9.962;2022-11-20T00:40:57;5.07;;;2.60;;
6306;SDS011;3186;54.062;9.962;2022-11-20T00:43:25;6.70;;;3.63;;
6306;SDS011;3186;54.062;9.962;2022-11-20T00:48:27;4.70;;;2.33;;
6306;SDS011;3186;54.062;9.962;2022-11-20T00:50:53;5.37;;;2.70;;
6306;SDS011;3186;54.062;9.962;2022-11-20T00:53:19;5.37;;;2.60;;
6306;SDS011;3186;54.062;9.962;2022-11-20T00:56:19;3.47;;;2.57;;
6306;SDS011;3186;54.062;9.962;2022-11-20T00:58:40;4.33;;;2.27;;
6306;SDS011;3186;54.062;9.962;2022-11-20T01:01:16;7.60;;;3.30;;
6306;SDS011;3186;54.062;9.962;2022-11-20T01:03:49;2.47;;;2.17;;
6306;SDS011;3186;54.062;9.962;2022-11-20T01:06:20;3.80;;;2.47;;
6306;SDS011;3186;54.062;9.962;2022-11-20T01:08:49;4.27;;;2.60;;
6306;SDS011;3186;54.062;9.962;2022-11-20T01:11:19;3.47;;;2.30;;
6306;SDS011;3186;54.062;9.962;2022-11-20T01:13:47;5.63;;;2.50;;
6306;SDS011;3186;54.062;9.962;2022-11-20T01:16:19;3.63;;;2.57;;
6306;SDS011;3186;54.062;9.962;2022-11-20T01:18:50;4.30;;;2.33;;
6306;SDS011;3186;54.062;9.962;2022-11-20T01:21:18;6.33;;;2.87;;
6306;SDS011;3186;54.062;9.962;2022-11-20T01:23:49;4.47;;;2.20;;
6306;SDS011;3186;54.062;9.962;2022-11-20T01:26:18;3.00;;;2.20;;
6306;SDS011;3186;54.062;9.962;2022-11-20T01:28:48;3.27;;;2.47;;
6306;SDS011;3186;54.062;9.962;2022-11-20T01:33:58;4.63;;;2.83;;
6306;SDS011;3186;54.062;9.962;2022-11-20T01:36:27;4.40;;;2.50;;
6306;SDS011;3186;54.062;9.962;2022-11-20T01:38:55;3.07;;;2.50;;
6306;SDS011;3186;54.062;9.962;2022-11-20T01:41:22;3.20;;;2.50;;
6306;SDS011;3186;54.062;9.962;2022-11-20T01:44:09;3.53;;;2.50;;
6306;SDS011;3186;54.062;9.962;2022-11-20T01:46:38;4.60;;;2.50;;
6306;SDS011;3186;54.062;9.962;2022-11-20T01:49:15;4.60;;;2.50;;
6306;SDS011;3186;54.062;9.962;2022-11-20T01:54:17;3.37;;;2.20;;
6306;SDS011;3186;54.062;9.962;2022-11-20T01:56:51;4.03;;;2.30;;
6306;SDS011;3186;54.062;9.962;2022-11-20T01:59:19;3.03;;;2.30;;
6306;SDS011;3186;54.062;9.962;2022-11-20T02:01:47;3.20;;;2.17;;
6306;SDS011;3186;54.062;9.962;2022-11-20T02:04:12;2.93;;;2.30;;
6306;SDS011;3186;54.062;9.962;2022-11-20T02:09:16;5.30;;;2.90;;
6306;SDS011;3186;54.062;9.962;2022-11-20T02:11:42;3.17;;;2.40;;
6306;SDS011;3186;54.062;9.962;2022-11-20T02:14:07;2.63;;;2.20;;
6306;SDS011;3186;54.062;9.962;2022-11-20T02:16:35;5.53;;;2.40;;
6306;SDS011;3186;54.062;9.962;2022-11-20T02:19:04;3.37;;;2.43;;
6306;SDS011;3186;54.062;9.962;2022-11-20T02:24:22;5.27;;;2.67;;
6306;SDS011;3186;54.062;9.962;2022-11-20T02:29:24;5.07;;;2.67;;
6306;SDS011;3186;54.062;9.962;2022-11-20T02:32:06;2.60;;;2.17;;
6306;SDS011;3186;54.062;9.962;2022-11-20T02:34:42;3.70;;;2.10;;
6306;SDS011;3186;54.062;9.962;2022-11-20T02:37:08;4.17;;;2.33;;
6306;SDS011;3186;54.062;9.962;2022-11-20T02:39:34;3.43;;;2.30;;
6306;SDS011;3186;54.062;9.962;2022-11-20T02:42:00;4.60;;;2.33;;
6306;SDS011;3186;54.062;9.962;2022-11-20T02:44:27;4.03;;;2.17;;
6306;SDS011;3186;54.062;9.962;2022-11-20T02:46:53;4.50;;;2.30;;
6306;SDS011;3186;54.062;9.962;2022-11-20T02:49:21;3.27;;;1.83;;
6306;SDS011;3186;54.062;9.962;2022-11-20T02:51:47;3.73;;;2.17;;
6306;SDS011;3186;54.062;9.962;2022-11-20T02:54:13;3.43;;;2.20;;
6306;SDS011;3186;54.062;9.962;2022-11-20T02:56:39;5.43;;;2.40;;
6306;SDS011;3186;54.062;9.962;2022-11-20T02:59:04;2.77;;;2.30;;
6306;SDS011;3186;54.062;9.962;2022-11-20T03:01:30;2.80;;;2.10;;
6306;SDS011;3186;54.062;9.962;2022-11-20T03:03:56;3.23;;;2.33;;
6306;SDS011;3186;54.062;9.962;2022-11-20T03:06:22;4.47;;;2.20;;
6306;SDS011;3186;54.062;9.962;2022-11-20T03:08:48;4.63;;;2.23;;
6306;SDS011;3186;54.062;9.962;2022-11-20T03:11:13;3.27;;;2.20;;
6306;SDS011;3186;54.062;9.962;2022-11-20T03:13:39;3.50;;;2.17;;
6306;SDS011;3186;54.062;9.962;2022-11-20T03:16:06;4.10;;;2.27;;
6306;SDS011;3186;54.062;9.962;2022-11-20T03:18:34;2.40;;;1.93;;
6306;SDS011;3186;54.062;9.962;2022-11-20T03:21:03;3.07;;;2.10;;
6306;SDS011;3186;54.062;9.962;2022-11-20T03:23:29;4.10;;;2.70;;
6306;SDS011;3186;54.062;9.962;2022-11-20T03:26:06;4.27;;;2.37;;
6306;SDS011;3186;54.062;9.962;2022-11-20T03:28:33;4.13;;;2.03;;
6306;SDS011;3186;54.062;9.962;2022-11-20T03:31:04;3.40;;;2.33;;
6306;SDS011;3186;54.062;9.962;2022-11-20T03:33:34;2.77;;;2.00;;
6306;SDS011;3186;54.062;9.962;2022-11-20T03:36:01;3.30;;;2.13;;
6306;SDS011;3186;54.062;9.962;2022-11-20T03:38:31;3.97;;;2.30;;
6306;SDS011;3186;54.062;9.962;2022-11-20T03:41:01;4.77;;;2.50;;
6306;SDS011;3186;54.062;9.962;2022-11-20T03:43:31;4.07;;;2.20;;
6306;SDS011;3186;54.062;9.962;2022-11-20T03:45:57;3.23;;;2.37;;
6306;SDS011;3186;54.062;9.962;2022-11-20T03:48:23;3.40;;;2.13;;
6306;SDS011;3186;54.062;9.962;2022-11-20T03:50:49;2.87;;;2.20;;
6306;SDS011;3186;54.062;9.962;2022-11-20T03:53:16;3.70;;;2.07;;
6306;SDS011;3186;54.062;9.962;2022-11-20T03:55:41;3.07;;;2.30;;
6306;SDS011;3186;54.062;9.962;2022-11-20T03:58:08;3.90;;;2.20;;
6306;SDS011;3186;54.062;9.962;2022-11-20T04:00:34;4.37;;;2.30;;
6306;SDS011;3186;54.062;9.962;2022-11-20T04:03:00;4.87;;;2.50;;
6306;SDS011;3186;54.062;9.962;2022-11-20T04:05:27;3.47;;;2.00;;
6306;SDS011;3186;54.062;9.962;2022-11-20T04:07:53;2.33;;;2.07;;
6306;SDS011;3186;54.062;9.962;2022-11-20T04:10:19;4.27;;;2.00;;
6306;SDS011;3186;54.062;9.962;2022-11-20T04:12:45;4.70;;;2.20;;
6306;SDS011;3186;54.062;9.962;2022-11-20T04:15:11;3.20;;;2.37;;
6306;SDS011;3186;54.062;9.962;2022-11-20T04:17:36;4.97;;;2.17;;
6306;SDS011;3186;54.062;9.962;2022-11-20T04:20:02;5.93;;;2.43;;
6306;SDS011;3186;54.062;9.962;2022-11-20T04:22:28;3.60;;;2.30;;
6306;SDS011;3186;54.062;9.962;2022-11-20T04:24:54;3.27;;;2.23;;
6306;SDS011;3186;54.062;9.962;2022-11-20T04:27:20;5.13;;;2.40;;
6306;SDS011;3186;54.062;9.962;2022-11-20T04:29:46;2.50;;;2.07;;
6306;SDS011;3186;54.062;9.962;2022-11-20T04:32:12;3.47;;;2.53;;
6306;SDS011;3186;54.062;9.962;2022-11-20T04:34:37;4.00;;;2.10;;
6306;SDS011;3186;54.062;9.962;2022-11-20T04:37:03;3.23;;;2.07;;
6306;SDS011;3186;54.062;9.962;2022-11-20T04:39:29;3.63;;;2.33;;
6306;SDS011;3186;54.062;9.962;2022-11-20T04:41:55;2.67;;;2.00;;
6306;SDS011;3186;54.062;9.962;2022-11-20T04:44:46;3.57;;;1.87;;
6306;SDS011;3186;54.062;9.962;2022-11-20T04:47:12;2.77;;;2.17;;
6306;SDS011;3186;54.062;9.962;2022-11-20T04:49:38;3.20;;;1.87;;
6306;SDS011;3186;54.062;9.962;2022-11-20T04:52:04;5.60;;;2.77;;
6306;SDS011;3186;54.062;9.962;2022-11-20T04:54:30;3.10;;;2.07;;
6306;SDS011;3186;54.062;9.962;2022-11-20T04:56:56;3.03;;;2.00;;
6306;SDS011;3186;54.062;9.962;2022-11-20T04:59:21;2.40;;;1.87;;
6306;SDS011;3186;54.062;9.962;2022-11-20T05:01:47;5.60;;;2.87;;
6306;SDS011;3186;54.062;9.962;2022-11-20T05:04:13;2.47;;;1.67;;
6306;SDS011;3186;54.062;9.962;2022-11-20T05:06:39;5.13;;;2.20;;
6306;SDS011;3186;54.062;9.962;2022-11-20T05:09:05;3.10;;;2.10;;
6306;SDS011;3186;54.062;9.962;2022-11-20T05:11:31;3.17;;;2.20;;
6306;SDS011;3186;54.062;9.962;2022-11-20T05:13:58;3.60;;;2.20;;
6306;SDS011;3186;54.062;9.962;2022-11-20T05:16:25;5.40;;;2.20;;
6306;SDS011;3186;54.062;9.962;2022-11-20T05:18:51;3.43;;;2.03;;
6306;SDS011;3186;54.062;9.962;2022-11-20T05:21:19;3.03;;;1.60;;
6306;SDS011;3186;54.062;9.962;2022-11-20T05:23:45;2.80;;;1.77;;
6306;SDS011;3186;54.062;9.962;2022-11-20T05:26:15;3.37;;;2.03;;
6306;SDS011;3186;54.062;9.962;2022-11-20T05:28:43;2.33;;;1.70;;
6306;SDS011;3186;54.062;9.962;2022-11-20T05:31:10;3.57;;;2.10;;
6306;SDS011;3186;54.062;9.962;2022-11-20T05:33:41;2.73;;;2.00;;
6306;SDS011;3186;54.062;9.962;2022-11-20T05:36:07;4.10;;;2.07;;
6306;SDS011;3186;54.062;9.962;2022-11-20T05:38:34;2.60;;;1.90;;
6306;SDS011;3186;54.062;9.962;2022-11-20T05:41:04;4.00;;;2.47;;
6306;SDS011;3186;54.062;9.962;2022-11-20T05:43:34;7.37;;;2.67;;
6306;SDS011;3186;54.062;9.962;2022-11-20T05:46:01;3.67;;;2.50;;
6306;SDS011;3186;54.062;9.962;2022-11-20T05:48:28;4.30;;;2.00;;
6306;SDS011;3186;54.062;9.962;2022-11-20T05:50:54;2.63;;;2.20;;
6306;SDS011;3186;54.062;9.962;2022-11-20T05:53:21;3.83;;;2.20;;
6306;SDS011;3186;54.062;9.962;2022-11-20T05:55:55;2.70;;;2.27;;
6306;SDS011;3186;54.062;9.962;2022-11-20T05:58:40;4.53;;;2.83;;
6306;SDS011;3186;54.062;9.962;2022-11-20T06:01:19;3.70;;;2.57;;
6306;SDS011;3186;54.062;9.962;2022-11-20T06:03:49;3.17;;;2.40;;
6306;SDS011;3186;54.062;9.962;2022-11-20T06:06:16;2.60;;;2.33;;
6306;SDS011;3186;54.062;9.962;2022-11-20T06:08:43;3.47;;;2.63;;
6306;SDS011;3186;54.062;9.962;2022-11-20T06:11:10;3.67;;;2.33;;
6306;SDS011;3186;54.062;9.962;2022-11-20T06:13:37;4.27;;;2.67;;
6306;SDS011;3186;54.062;9.962;2022-11-20T06:16:04;3.97;;;2.70;;
6306;SDS011;3186;54.062;9.962;2022-11-20T06:18:30;3.40;;;2.53;;
6306;SDS011;3186;54.062;9.962;2022-11-20T06:21:03;7.73;;;2.93;;
6306;SDS011;3186;54.062;9.962;2022-11-20T06:23:31;2.60;;;2.40;;
6306;SDS011;3186;54.062;9.962;2022-11-20T06:26:00;4.13;;;2.50;;
6306;SDS011;3186;54.062;9.962;2022-11-20T06:28:28;3.10;;;2.00;;
6306;SDS011;3186;54.062;9.962;2022-11-20T06:30:54;3.73;;;2.33;;
6306;SDS011;3186;54.062;9.962;2022-11-20T06:33:19;2.50;;;2.27;;
6306;SDS011;3186;54.062;9.962;2022-11-20T06:35:45;2.53;;;2.20;;
6306;SDS011;3186;54.062;9.962;2022-11-20T06:38:11;2.23;;;2.00;;
6306;SDS011;3186;54.062;9.962;2022-11-20T06:40:39;2.67;;;2.40;;
6306;SDS011;3186;54.062;9.962;2022-11-20T06:43:11;2.87;;;2.43;;
6306;SDS011;3186;54.062;9.962;2022-11-20T06:45:37;2.47;;;2.27;;
6306;SDS011;3186;54.062;9.962;2022-11-20T06:48:03;3.23;;;2.47;;
6306;SDS011;3186;54.062;9.962;2022-11-20T06:50:29;2.40;;;2.20;;
6306;SDS011;3186;54.062;9.962;2022-11-20T06:52:55;2.40;;;2.20;;
6306;SDS011;3186;54.062;9.962;2022-11-20T06:55:21;3.23;;;2.30;;
6306;SDS011;3186;54.062;9.962;2022-11-20T06:57:47;2.43;;;2.23;;
6306;SDS011;3186;54.062;9.962;2022-11-20T07:00:13;2.90;;;2.40;;
6306;SDS011;3186;54.062;9.962;2022-11-20T07:02:39;2.90;;;2.20;;
6306;SDS011;3186;54.062;9.962;2022-11-20T07:05:05;2.93;;;2.43;;
6306;SDS011;3186;54.062;9.962;2022-11-20T07:07:31;2.73;;;2.40;;
6306;SDS011;3186;54.062;9.962;2022-11-20T07:09:57;4.23;;;2.80;;
6306;SDS011;3186;54.062;9.962;2022-11-20T07:12:22;2.40;;;2.20;;
6306;SDS011;3186;54.062;9.962;2022-11-20T07:14:48;2.93;;;2.37;;
6306;SDS011;3186;54.062;9.962;2022-11-20T07:17:14;2.40;;;2.20;;
6306;SDS011;3186;54.062;9.962;2022-11-20T07:19:40;2.67;;;2.40;;
6306;SDS011;3186;54.062;9.962;2022-11-20T07:22:05;2.83;;;2.33;;
6306;SDS011;3186;54.062;9.962;2022-11-20T07:24:31;2.87;;;2.57;;
6306;SDS011;3186;54.062;9.962;2022-11-20T07:26:57;3.07;;;2.70;;
6306;SDS011;3186;54.062;9.962;2022-11-20T07:29:23;3.47;;;2.50;;
6306;SDS011;3186;54.062;9.962;2022-11-20T07:31:48;2.80;;;2.27;;
6306;SDS011;3186;54.062;9.962;2022-11-20T07:34:14;3.57;;;2.60;;
6306;SDS011;3186;54.062;9.962;2022-11-20T07:36:40;3.93;;;2.80;;
6306;SDS011;3186;54.062;9.962;2022-11-20T07:39:06;3.37;;;2.57;;
6306;SDS011;3186;54.062;9.962;2022-11-20T07:41:31;2.90;;;2.60;;
6306;SDS011;3186;54.062;9.962;2022-11-20T07:43:57;3.30;;;2.70;;
6306;SDS011;3186;54.062;9.962;2022-11-20T07:46:23;2.87;;;2.50;;
6306;SDS011;3186;54.062;9.962;2022-11-20T07:48:49;2.97;;;2.63;;
6306;SDS011;3186;54.062;9.962;2022-11-20T07:51:15;3.50;;;3.07;;
6306;SDS011;3186;54.062;9.962;2022-11-20T07:53:40;4.27;;;3.00;;
6306;SDS011;3186;54.062;9.962;2022-11-20T07:56:06;3.27;;;2.80;;
6306;SDS011;3186;54.062;9.962;2022-11-20T07:58:32;4.10;;;3.30;;
6306;SDS011;3186;54.062;9.962;2022-11-20T08:01:03;3.40;;;3.10;;
6306;SDS011;3186;54.062;9.962;2022-11-20T08:03:32;3.40;;;3.03;;
6306;SDS011;3186;54.062;9.962;2022-11-20T08:06:01;4.23;;;3.20;;
6306;SDS011;3186;54.062;9.962;2022-11-20T08:08:27;3.27;;;2.97;;
6306;SDS011;3186;54.062;9.962;2022-11-20T08:10:53;4.60;;;3.40;;
6306;SDS011;3186;54.062;9.962;2022-11-20T08:13:41;4.67;;;3.60;;
6306;SDS011;3186;54.062;9.962;2022-11-20T08:16:25;9.10;;;3.83;;
6306;SDS011;3186;54.062;9.962;2022-11-20T08:18:51;5.93;;;4.47;;
6306;SDS011;3186;54.062;9.962;2022-11-20T08:21:17;5.60;;;4.60;;
6306;SDS011;3186;54.062;9.962;2022-11-20T08:23:42;5.73;;;4.10;;
6306;SDS011;3186;54.062;9.962;2022-11-20T08:26:08;5.07;;;4.33;;
6306;SDS011;3186;54.062;9.962;2022-11-20T08:28:34;6.07;;;4.73;;
6306;SDS011;3186;54.062;9.962;2022-11-20T08:31:02;5.93;;;4.37;;
6306;SDS011;3186;54.062;9.962;2022-11-20T08:33:28;6.00;;;3.90;;
6306;SDS011;3186;54.062;9.962;2022-11-20T08:35:58;5.60;;;3.97;;
6306;SDS011;3186;54.062;9.962;2022-11-20T08:38:27;4.40;;;3.70;;
6306;SDS011;3186;54.062;9.962;2022-11-20T08:41:00;5.47;;;4.20;;
6306;SDS011;3186;54.062;9.962;2022-11-20T08:43:47;4.40;;;3.93;;
6306;SDS011;3186;54.062;9.962;2022-11-20T08:46:13;4.37;;;3.73;;
6306;SDS011;3186;54.062;9.962;2022-11-20T08:48:39;5.03;;;3.70;;
6306;SDS011;3186;54.062;9.962;2022-11-20T08:51:05;4.77;;;3.80;;
6306;SDS011;3186;54.062;9.962;2022-11-20T08:53:31;3.80;;;3.40;;
6306;SDS011;3186;54.062;9.962;2022-11-20T08:55:57;5.53;;;4.00;;
6306;SDS011;3186;54.062;9.962;2022-11-20T08:58:23;5.47;;;3.47;;
6306;SDS011;3186;54.062;9.962;2022-11-20T09:00:49;4.97;;;3.67;;
6306;SDS011;3186;54.062;9.962;2022-11-20T09:03:15;4.60;;;3.83;;
6306;SDS011;3186;54.062;9.962;2022-11-20T09:05:41;4.90;;;3.80;;
6306;SDS011;3186;54.062;9.962;2022-11-20T09:08:07;3.97;;;3.40;;
6306;SDS011;3186;54.062;9.962;2022-11-20T09:10:33;4.97;;;3.83;;
6306;SDS011;3186;54.062;9.962;2022-11-20T09:12:59;5.00;;;3.47;;
6306;SDS011;3186;54.062;9.962;2022-11-20T09:15:26;4.20;;;3.10;;
6306;SDS011;3186;54.062;9.962;2022-11-20T09:17:53;4.27;;;3.70;;
6306;SDS011;3186;54.062;9.962;2022-11-20T09:20:23;3.37;;;3.07;;
6306;SDS011;3186;54.062;9.962;2022-11-20T09:22:50;4.10;;;3.30;;
6306;SDS011;3186;54.062;9.962;2022-11-20T09:25:16;3.60;;;3.07;;
6306;SDS011;3186;54.062;9.962;2022-11-20T09:27:42;3.70;;;3.13;;
6306;SDS011;3186;54.062;9.962;2022-11-20T09:30:10;4.73;;;3.13;;
6306;SDS011;3186;54.062;9.962;2022-11-20T09:32:40;4.63;;;3.03;;
6306;SDS011;3186;54.062;9.962;2022-11-20T09:35:07;4.33;;;3.03;;
6306;SDS011;3186;54.062;9.962;2022-11-20T09:37:33;4.10;;;3.03;;
6306;SDS011;3186;54.062;9.962;2022-11-20T09:39:59;3.40;;;3.07;;
6306;SDS011;3186;54.062;9.962;2022-11-20T09:50:49;3.03;;;2.50;;
6306;SDS011;3186;54.062;9.962;2022-11-20T09:55:46;3.17;;;2.70;;
6306;SDS011;3186;54.062;9.962;2022-11-20T09:58:38;3.47;;;3.10;;
6306;SDS011;3186;54.062;9.962;2022-11-20T10:01:12;3.53;;;3.10;;
6306;SDS011;3186;54.062;9.962;2022-11-20T10:03:58;4.20;;;3.80;;
6306;SDS011;3186;54.062;9.962;2022-11-20T10:06:37;5.30;;;4.00;;
6306;SDS011;3186;54.062;9.962;2022-11-20T10:09:29;3.53;;;3.23;;
6306;SDS011;3186;54.062;9.962;2022-11-20T10:17:38;4.27;;;3.20;;
6306;SDS011;3186;54.062;9.962;2022-11-20T10:20:17;3.20;;;2.83;;
6306;SDS011;3186;54.062;9.962;2022-11-20T10:28:53;4.03;;;2.50;;
6306;SDS011;3186;54.062;9.962;2022-11-20T10:31:41;2.90;;;2.30;;
6306;SDS011;3186;54.062;9.962;2022-11-20T10:37:22;3.33;;;2.73;;
6306;SDS011;3186;54.062;9.962;2022-11-20T10:39:57;4.60;;;2.50;;
6306;SDS011;3186;54.062;9.962;2022-11-20T10:42:42;3.40;;;2.70;;
6306;SDS011;3186;54.062;9.962;2022-11-20T10:48:32;3.00;;;2.40;;
6306;SDS011;3186;54.062;9.962;2022-11-20T10:56:47;2.63;;;2.20;;
6306;SDS011;3186;54.062;9.962;2022-11-20T11:04:45;3.77;;;2.50;;
6306;SDS011;3186;54.062;9.962;2022-11-20T11:09:56;2.87;;;2.47;;
6306;SDS011;3186;54.062;9.962;2022-11-20T11:12:23;2.57;;;2.10;;
6306;SDS011;3186;54.062;9.962;2022-11-20T11:14:55;3.37;;;2.63;;
6306;SDS011;3186;54.062;9.962;2022-11-20T11:22:28;6.43;;;3.63;;
6306;SDS011;3186;54.062;9.962;2022-11-20T11:24:55;5.40;;;3.30;;
6306;SDS011;3186;54.062;9.962;2022-11-20T11:27:21;3.87;;;2.70;;
6306;SDS011;3186;54.062;9.962;2022-11-20T11:29:47;3.27;;;2.97;;
6306;SDS011;3186;54.062;9.962;2022-11-20T11:32:14;3.70;;;2.50;;
6306;SDS011;3186;54.062;9.962;2022-11-20T11:34:57;3.37;;;2.90;;
6306;SDS011;3186;54.062;9.962;2022-11-20T11:37:24;3.77;;;3.07;;
6306;SDS011;3186;54.062;9.962;2022-11-20T11:39:57;3.77;;;3.20;;
6306;SDS011;3186;54.062;9.962;2022-11-20T11:42:23;4.20;;;3.30;;
6306;SDS011;3186;54.062;9.962;2022-11-20T11:44:49;4.40;;;3.30;;
6306;SDS011;3186;54.062;9.962;2022-11-20T11:55:47;4.43;;;3.70;;
6306;SDS011;3186;54.062;9.962;2022-11-20T12:01:17;4.20;;;3.40;;
6306;SDS011;3186;54.062;9.962;2022-11-20T12:03:59;4.93;;;3.47;;
6306;SDS011;3186;54.062;9.962;2022-11-20T12:06:29;4.33;;;3.43;;
6306;SDS011;3186;54.062;9.962;2022-11-20T12:14:20;6.87;;;4.03;;
6306;SDS011;3186;54.062;9.962;2022-11-20T12:16:58;3.93;;;3.13;;
6306;SDS011;3186;54.062;9.962;2022-11-20T12:19:27;4.90;;;3.93;;
6306;SDS011;3186;54.062;9.962;2022-11-20T12:32:35;3.33;;;3.03;;
6306;SDS011;3186;54.062;9.962;2022-11-20T12:40:45;3.43;;;3.13;;
6306;SDS011;3186;54.062;9.962;2022-11-20T12:43:58;4.63;;;3.20;;
6306;SDS011;3186;54.062;9.962;2022-11-20T12:47:28;7.03;;;3.57;;
6306;SDS011;3186;54.062;9.962;2022-11-20T12:57:57;4.33;;;3.33;;
6306;SDS011;3186;54.062;9.962;2022-11-20T13:00:29;3.50;;;2.80;;
6306;SDS011;3186;54.062;9.962;2022-11-20T13:06:11;5.57;;;2.90;;
6306;SDS011;3186;54.062;9.962;2022-11-20T13:08:55;4.77;;;3.23;;
6306;SDS011;3186;54.062;9.962;2022-11-20T13:19:32;5.23;;;2.60;;
6306;SDS011;3186;54.062;9.962;2022-11-20T13:21:58;5.97;;;2.53;;
6306;SDS011;3186;54.062;9.962;2022-11-20T13:24:26;3.53;;;2.53;;
6306;SDS011;3186;54.062;9.962;2022-11-20T13:29:31;3.10;;;2.60;;
6306;SDS011;3186;54.062;9.962;2022-11-20T13:32:14;3.87;;;2.50;;
6306;SDS011;3186;54.062;9.962;2022-11-20T13:34:58;3.63;;;2.63;;
6306;SDS011;3186;54.062;9.962;2022-11-20T13:40:05;3.60;;;2.40;;
6306;SDS011;3186;54.062;9.962;2022-11-20T13:42:37;4.37;;;2.63;;
6306;SDS011;3186;54.062;9.962;2022-11-20T13:47:52;5.10;;;3.80;;
6306;SDS011;3186;54.062;9.962;2022-11-20T13:50:19;4.57;;;3.03;;
6306;SDS011;3186;54.062;9.962;2022-11-20T13:55:38;4.33;;;3.20;;
6306;SDS011;3186;54.062;9.962;2022-11-20T14:01:17;3.80;;;2.90;;
6306;SDS011;3186;54.062;9.962;2022-11-20T14:03:46;4.57;;;2.90;;
6306;SDS011;3186;54.062;9.962;2022-11-20T14:08:51;5.10;;;2.83;;
6306;SDS011;3186;54.062;9.962;2022-11-20T14:11:18;6.30;;;2.73;;
6306;SDS011;3186;54.062;9.962;2022-11-20T14:16:21;4.83;;;3.90;;
6306;SDS011;3186;54.062;9.962;2022-11-20T14:18:47;5.63;;;4.03;;
6306;SDS011;3186;54.062;9.962;2022-11-20T14:21:26;5.63;;;4.47;;
6306;SDS011;3186;54.062;9.962;2022-11-20T14:24:04;5.63;;;4.43;;
6306;SDS011;3186;54.062;9.962;2022-11-20T14:26:31;5.53;;;4.30;;
6306;SDS011;3186;54.062;9.962;2022-11-20T14:28:58;6.03;;;4.70;;
6306;SDS011;3186;54.062;9.962;2022-11-20T14:31:25;6.13;;;5.10;;
6306;SDS011;3186;54.062;9.962;2022-11-20T14:33:53;6.57;;;5.30;;
6306;SDS011;3186;54.062;9.962;2022-11-20T14:36:21;6.37;;;5.10;;
6306;SDS011;3186;54.062;9.962;2022-11-20T14:38:49;5.97;;;5.33;;
6306;SDS011;3186;54.062;9.962;2022-11-20T14:41:20;6.83;;;5.87;;
6306;SDS011;3186;54.062;9.962;2022-11-20T14:43:53;7.30;;;5.70;;
6306;SDS011;3186;54.062;9.962;2022-11-20T14:46:22;6.83;;;5.77;;
6306;SDS011;3186;54.062;9.962;2022-11-20T14:48:49;7.97;;;6.23;;
6306;SDS011;3186;54.062;9.962;2022-11-20T14:51:25;9.47;;;6.43;;
6306;SDS011;3186;54.062;9.962;2022-11-20T14:54:19;7.67;;;6.77;;
6306;SDS011;3186;54.062;9.962;2022-11-20T14:57:01;11.57;;;7.53;;
6306;SDS011;3186;54.062;9.962;2022-11-20T14:59:29;9.93;;;6.70;;
6306;SDS011;3186;54.062;9.962;2022-11-20T15:02:08;9.93;;;6.77;;
6306;SDS011;3186;54.062;9.962;2022-11-20T15:04:46;10.63;;;6.57;;
6306;SDS011;3186;54.062;9.962;2022-11-20T15:07:28;10.07;;;7.10;;
6306;SDS011;3186;54.062;9.962;2022-11-20T15:10:06;10.53;;;7.20;;
6306;SDS011;3186;54.062;9.962;2022-11-20T15:12:37;13.60;;;8.23;;
6306;SDS011;3186;54.062;9.962;2022-11-20T15:15:14;11.80;;;8.43;;
6306;SDS011;3186;54.062;9.962;2022-11-20T15:17:48;10.97;;;7.63;;
6306;SDS011;3186;54.062;9.962;2022-11-20T15:20:14;11.20;;;8.00;;
6306;SDS011;3186;54.062;9.962;2022-11-20T15:22:42;12.27;;;8.33;;
6306;SDS011;3186;54.062;9.962;2022-11-20T15:25:11;13.67;;;8.40;;
6306;SDS011;3186;54.062;9.962;2022-11-20T15:27:39;12.60;;;7.87;;
6306;SDS011;3186;54.062;9.962;2022-11-20T15:30:11;13.47;;;8.40;;
6306;SDS011;3186;54.062;9.962;2022-11-20T15:32:42;13.03;;;8.10;;
6306;SDS011;3186;54.062;9.962;2022-11-20T15:35:09;13.20;;;8.50;;
6306;SDS011;3186;54.062;9.962;2022-11-20T15:37:37;15.27;;;8.43;;
6306;SDS011;3186;54.062;9.962;2022-11-20T15:40:03;14.47;;;8.63;;
6306;SDS011;3186;54.062;9.962;2022-11-20T15:42:30;14.60;;;8.87;;
6306;SDS011;3186;54.062;9.962;2022-11-20T15:44:56;13.90;;;9.67;;
6306;SDS011;3186;54.062;9.962;2022-11-20T15:47:23;15.23;;;9.43;;
6306;SDS011;3186;54.062;9.962;2022-11-20T15:49:53;16.77;;;9.30;;
6306;SDS011;3186;54.062;9.962;2022-11-20T15:52:19;13.10;;;9.37;;
6306;SDS011;3186;54.062;9.962;2022-11-20T15:54:44;13.37;;;9.17;;
6306;SDS011;3186;54.062;9.962;2022-11-20T15:57:10;13.27;;;8.83;;
6306;SDS011;3186;54.062;9.962;2022-11-20T15:59:36;14.90;;;9.53;;
6306;SDS011;3186;54.062;9.962;2022-11-20T16:02:11;13.93;;;9.23;;
6306;SDS011;3186;54.062;9.962;2022-11-20T16:04:38;15.07;;;9.20;;
6306;SDS011;3186;54.062;9.962;2022-11-20T16:07:04;18.30;;;10.30;;
6306;SDS011;3186;54.062;9.962;2022-11-20T16:09:30;15.70;;;10.63;;
6306;SDS011;3186;54.062;9.962;2022-11-20T16:11:57;17.10;;;10.80;;
6306;SDS011;3186;54.062;9.962;2022-11-20T16:14:25;17.33;;;10.47;;
6306;SDS011;3186;54.062;9.962;2022-11-20T16:17:10;17.87;;;11.20;;
6306;SDS011;3186;54.062;9.962;2022-11-20T16:19:36;19.67;;;12.03;;
6306;SDS011;3186;54.062;9.962;2022-11-20T16:22:02;19.53;;;12.40;;
6306;SDS011;3186;54.062;9.962;2022-11-20T16:24:28;20.07;;;12.10;;
6306;SDS011;3186;54.062;9.962;2022-11-20T16:26:54;20.60;;;12.63;;
6306;SDS011;3186;54.062;9.962;2022-11-20T16:29:21;21.80;;;13.13;;
6306;SDS011;3186;54.062;9.962;2022-11-20T16:31:46;21.20;;;13.07;;
6306;SDS011;3186;54.062;9.962;2022-11-20T16:34:12;21.93;;;14.13;;
6306;SDS011;3186;54.062;9.962;2022-11-20T16:36:40;19.40;;;13.40;;
6306;SDS011;3186;54.062;9.962;2022-11-20T16:39:08;22.50;;;13.97;;
6306;SDS011;3186;54.062;9.962;2022-11-20T16:41:34;19.33;;;13.83;;
6306;SDS011;3186;54.062;9.962;2022-11-20T16:44:02;20.50;;;13.00;;
6306;SDS011;3186;54.062;9.962;2022-11-20T16:46:32;20.00;;;13.43;;
6306;SDS011;3186;54.062;9.962;2022-11-20T16:48:59;21.17;;;13.27;;
6306;SDS011;3186;54.062;9.962;2022-11-20T16:51:27;20.50;;;13.70;;
6306;SDS011;3186;54.062;9.962;2022-11-20T16:53:55;20.37;;;13.20;;
6306;SDS011;3186;54.062;9.962;2022-11-20T16:56:22;19.87;;;12.50;;
6306;SDS011;3186;54.062;9.962;2022-11-20T16:58:49;19.93;;;13.00;;
6306;SDS011;3186;54.062;9.962;2022-11-20T17:01:16;19.73;;;12.43;;
6306;SDS011;3186;54.062;9.962;2022-11-20T17:03:46;19.93;;;11.93;;
6306;SDS011;3186;54.062;9.962;2022-11-20T17:06:18;19.37;;;11.60;;
6306;SDS011;3186;54.062;9.962;2022-11-20T17:08:45;18.60;;;11.77;;
6306;SDS011;3186;54.062;9.962;2022-11-20T17:11:13;16.70;;;10.53;;
6306;SDS011;3186;54.062;9.962;2022-11-20T17:13:40;15.93;;;11.07;;
6306;SDS011;3186;54.062;9.962;2022-11-20T17:16:07;17.23;;;10.47;;
6306;SDS011;3186;54.062;9.962;2022-11-20T17:18:38;18.27;;;11.40;;
6306;SDS011;3186;54.062;9.962;2022-11-20T17:21:05;16.87;;;11.20;;
6306;SDS011;3186;54.062;9.962;2022-11-20T17:23:32;14.83;;;9.30;;
6306;SDS011;3186;54.062;9.962;2022-11-20T17:26:10;16.13;;;9.83;;
6306;SDS011;3186;54.062;9.962;2022-11-20T17:28:36;15.67;;;10.27;;
6306;SDS011;3186;54.062;9.962;2022-11-20T17:31:04;17.93;;;10.27;;
6306;SDS011;3186;54.062;9.962;2022-11-20T17:33:33;16.70;;;10.67;;
6306;SDS011;3186;54.062;9.962;2022-11-20T17:36:00;14.13;;;10.60;;
6306;SDS011;3186;54.062;9.962;2022-11-20T17:38:26;15.17;;;9.70;;
6306;SDS011;3186;54.062;9.962;2022-11-20T17:40:52;18.30;;;10.90;;